createdAt,value
2019-01-19T00:02:40.826Z,9.80
2019-01-19T00:05:19.672Z,10.20
2019-01-19T00:07:57.736Z,10.57
2019-01-19T00:10:51.064Z,10.70
2019-01-19T00:13:23.554Z,11.53
2019-01-19T00:16:16.844Z,11.97
2019-01-19T00:19:13.865Z,12.47
2019-01-19T00:21:52.335Z,11.27
2019-01-19T00:24:24.766Z,12.00
2019-01-19T00:26:59.931Z,12.07
2019-01-19T00:29:35.318Z,12.53
2019-01-19T00:32:08.323Z,11.17
2019-01-19T00:35:05.890Z,11.73
2019-01-19T00:37:38.420Z,12.23
2019-01-19T00:40:36.294Z,12.43
2019-01-19T00:43:07.962Z,12.50
2019-01-19T00:45:46.462Z,12.10
2019-01-19T00:48:27.835Z,11.53
2019-01-19T00:51:08.859Z,11.13
2019-01-19T00:53:51.401Z,11.90
2019-01-19T00:56:29.805Z,11.47
2019-01-19T00:59:02.742Z,12.03
2019-01-19T01:02:08.307Z,12.30
2019-01-19T01:04:44.303Z,11.53
2019-01-19T01:07:29.461Z,11.87
2019-01-19T01:10:04.583Z,11.63
2019-01-19T01:13:07.058Z,12.80
2019-01-19T01:15:54.436Z,11.77
2019-01-19T01:18:38.899Z,13.27
2019-01-19T01:21:23.054Z,12.70
2019-01-19T01:23:55.465Z,13.47
2019-01-19T01:26:39.929Z,12.77
2019-01-19T01:29:43.971Z,12.50
2019-01-19T01:32:22.259Z,12.50
2019-01-19T01:35:18.890Z,13.30
2019-01-19T01:37:53.871Z,12.90
2019-01-19T01:40:29.119Z,14.43
2019-01-19T01:43:18.472Z,14.37
2019-01-19T01:45:59.851Z,13.53
2019-01-19T01:48:55.822Z,13.90
2019-01-19T01:51:28.305Z,13.00
2019-01-19T01:54:18.611Z,12.93
2019-01-19T01:56:48.356Z,11.17
2019-01-19T01:59:23.746Z,12.87
2019-01-19T02:02:14.412Z,11.90
2019-01-19T02:05:13.689Z,11.30
2019-01-19T02:07:49.227Z,11.13
2019-01-19T02:10:51.881Z,11.67
2019-01-19T02:13:29.929Z,11.73
2019-01-19T02:16:04.514Z,11.77
2019-01-19T02:21:50.665Z,11.90
2019-01-19T02:24:38.065Z,12.27
2019-01-19T02:27:29.863Z,11.60
2019-01-19T02:30:20.239Z,12.70
2019-01-19T02:32:52.770Z,12.80
2019-01-19T02:35:25.269Z,12.67
2019-01-19T02:38:00.633Z,12.30
2019-01-19T02:40:35.929Z,12.43
2019-01-19T02:43:17.393Z,12.67
2019-01-19T02:45:52.575Z,12.80
2019-01-19T02:48:49.220Z,11.73
2019-01-19T02:51:24.241Z,13.63
2019-01-19T02:54:10.865Z,12.37
2019-01-19T02:56:56.456Z,13.13
2019-01-19T02:59:38.056Z,12.77
2019-01-19T03:02:20.325Z,12.17
2019-01-19T03:04:55.707Z,12.20
2019-01-19T03:07:31.346Z,11.80
2019-01-19T03:10:27.917Z,12.43
2019-01-19T03:13:06.525Z,12.33
2019-01-19T03:15:47.561Z,14.13
2019-01-19T03:18:20.594Z,13.63
2019-01-19T03:20:53.128Z,13.17
2019-01-19T03:23:31.180Z,14.30
2019-01-19T03:26:06.923Z,13.33
2019-01-19T03:28:41.986Z,13.40
2019-01-19T03:31:20.005Z,13.20
2019-01-19T03:33:55.038Z,13.57
2019-01-19T03:36:30.813Z,12.63
2019-01-19T03:39:19.785Z,13.23
2019-01-19T03:41:58.761Z,14.13
2019-01-19T03:44:31.171Z,15.13
2019-01-19T03:47:26.776Z,15.10
2019-01-19T03:50:25.645Z,14.17
2019-01-19T03:53:17.568Z,14.77
2019-01-19T03:56:06.892Z,14.30
2019-01-19T03:58:48.281Z,14.03
2019-01-19T04:01:30.078Z,14.50
2019-01-19T04:04:11.338Z,16.03
2019-01-19T04:06:55.833Z,13.17
2019-01-19T04:09:52.105Z,13.23
2019-01-19T04:12:36.400Z,12.77
2019-01-19T04:15:12.032Z,13.27
2019-01-19T04:18:02.424Z,13.07
2019-01-19T04:21:18.490Z,12.53
2019-01-19T04:23:50.982Z,12.53
2019-01-19T04:26:23.100Z,13.00
2019-01-19T04:28:52.809Z,12.97
2019-01-19T04:31:22.404Z,12.27
2019-01-19T04:33:52.291Z,11.87
2019-01-19T04:36:22.273Z,11.93
2019-01-19T04:38:52.588Z,11.83
2019-01-19T04:41:22.020Z,11.47
2019-01-19T04:43:52.486Z,12.17
2019-01-19T04:46:21.967Z,12.17
2019-01-19T04:48:51.509Z,12.97
2019-01-19T04:51:20.933Z,12.70
2019-01-19T04:53:51.830Z,13.00
2019-01-19T04:56:21.260Z,12.73
2019-01-19T04:58:50.674Z,13.43
2019-01-19T05:01:20.113Z,13.87
2019-01-19T05:03:50.004Z,12.17
2019-01-19T05:06:20.433Z,11.17
2019-01-19T05:08:50.140Z,11.47
2019-01-19T05:11:20.095Z,11.10
2019-01-19T05:13:49.460Z,13.07
2019-01-19T05:16:19.553Z,10.83
2019-01-19T05:18:49.000Z,10.30
2019-01-19T05:21:18.951Z,10.20
2019-01-19T05:23:48.484Z,11.40
2019-01-19T05:26:17.923Z,11.43
2019-01-19T05:28:47.266Z,11.23
2019-01-19T05:31:16.693Z,10.40
2019-01-19T05:33:47.346Z,11.77
2019-01-19T05:36:16.699Z,10.27
2019-01-19T05:38:46.376Z,10.40
2019-01-19T05:41:15.818Z,10.97
2019-01-19T05:43:45.249Z,10.60
2019-01-19T05:46:21.369Z,10.72
2019-01-19T05:48:45.728Z,11.63
2019-01-19T05:51:16.149Z,11.30
2019-01-19T05:53:45.574Z,11.77
2019-01-19T05:56:15.106Z,11.37
2019-01-19T05:58:44.880Z,11.78
2019-01-19T06:01:14.777Z,11.07
2019-01-19T06:03:44.726Z,10.87
2019-01-19T06:06:14.806Z,11.73
2019-01-19T06:08:44.656Z,12.10
2019-01-19T06:11:14.176Z,12.07
2019-01-19T06:13:43.611Z,11.30
2019-01-19T06:16:13.564Z,11.60
2019-01-19T06:18:43.600Z,12.03
2019-01-19T06:21:13.905Z,12.57
2019-01-19T06:23:43.689Z,11.57
2019-01-19T06:26:13.504Z,12.13
2019-01-19T06:28:43.519Z,11.30
2019-01-19T06:31:13.007Z,11.93
2019-01-19T06:33:42.646Z,11.65
2019-01-19T06:36:12.205Z,11.57
2019-01-19T06:38:41.719Z,11.40
2019-01-19T06:41:11.152Z,12.93
2019-01-19T06:43:40.504Z,11.27
2019-01-19T06:46:10.308Z,11.17
2019-01-19T06:48:39.696Z,11.50
2019-01-19T06:51:09.109Z,12.20
2019-01-19T06:53:38.795Z,10.80
2019-01-19T06:56:08.308Z,11.80
2019-01-19T06:58:37.732Z,11.37
2019-01-19T07:01:07.911Z,11.00
2019-01-19T07:03:37.935Z,11.57
2019-01-19T07:06:07.496Z,11.37
2019-01-19T07:08:37.011Z,11.05
2019-01-19T07:11:06.457Z,11.60
2019-01-19T07:13:35.882Z,10.53
2019-01-19T07:16:05.469Z,10.37
2019-01-19T07:18:35.058Z,10.97
2019-01-19T07:21:04.918Z,11.43
2019-01-19T07:23:34.779Z,11.33
2019-01-19T07:26:05.539Z,10.33
2019-01-19T07:28:35.019Z,10.30
2019-01-19T07:31:04.543Z,11.73
2019-01-19T07:33:33.967Z,11.70
2019-01-19T07:36:03.526Z,12.23
2019-01-19T07:38:32.979Z,12.80
2019-01-19T07:41:03.134Z,12.57
2019-01-19T07:43:33.010Z,12.27
2019-01-19T07:46:04.851Z,12.43
2019-01-19T07:48:34.353Z,13.83
2019-01-19T07:51:04.352Z,12.57
2019-01-19T07:53:33.869Z,12.40
2019-01-19T07:56:03.291Z,11.43
2019-01-19T07:58:32.734Z,12.97
2019-01-19T08:01:03.601Z,12.40
2019-01-19T08:03:33.226Z,12.53
2019-01-19T08:06:04.036Z,14.77
2019-01-19T08:08:34.784Z,14.77
2019-01-19T08:11:04.361Z,12.97
2019-01-19T08:13:33.876Z,14.13
2019-01-19T08:16:03.578Z,13.27
2019-01-19T08:18:32.992Z,12.87
2019-01-19T08:21:03.157Z,11.93
2019-01-19T08:23:33.186Z,12.20
2019-01-19T08:26:02.607Z,13.10
2019-01-19T08:28:32.050Z,12.90
2019-01-19T08:31:02.533Z,12.93
2019-01-19T08:33:32.164Z,13.00
2019-01-19T08:36:02.338Z,12.50
2019-01-19T08:38:31.866Z,12.80
2019-01-19T08:41:02.622Z,12.80
2019-01-19T08:43:33.791Z,12.97
2019-01-19T08:46:03.342Z,12.13
2019-01-19T08:48:33.439Z,12.27
2019-01-19T08:51:03.011Z,12.90
2019-01-19T08:53:32.879Z,12.77
2019-01-19T08:56:02.347Z,13.10
2019-01-19T08:58:31.892Z,12.43
2019-01-19T09:01:01.891Z,13.33
2019-01-19T09:03:31.233Z,13.07
2019-01-19T09:06:00.686Z,12.57
2019-01-19T09:08:30.181Z,12.83
2019-01-19T09:10:59.864Z,11.97
2019-01-19T09:13:29.740Z,12.90
2019-01-19T09:15:59.984Z,12.50
2019-01-19T09:18:29.616Z,12.97
2019-01-19T09:21:00.485Z,12.90
2019-01-19T09:23:31.721Z,13.67
2019-01-19T09:26:01.203Z,13.10
2019-01-19T09:28:30.657Z,14.00
2019-01-19T09:31:00.069Z,13.40
2019-01-19T09:33:29.566Z,13.33
2019-01-19T09:35:59.156Z,12.90
2019-01-19T09:38:28.643Z,13.43
2019-01-19T09:40:59.434Z,13.73
2019-01-19T09:43:28.937Z,13.03
2019-01-19T09:45:58.439Z,13.90
2019-01-19T09:48:28.363Z,11.37
2019-01-19T09:50:58.895Z,12.70
2019-01-19T09:53:28.456Z,12.50
2019-01-19T09:55:58.120Z,13.43
2019-01-19T09:58:27.500Z,15.87
2019-01-19T10:00:57.509Z,13.57
2019-01-19T10:03:26.970Z,12.13
2019-01-19T10:05:56.457Z,13.40
2019-01-19T10:08:25.879Z,12.73
2019-01-19T10:10:56.058Z,13.37
2019-01-19T10:13:26.068Z,15.40
2019-01-19T10:15:55.412Z,13.97
2019-01-19T10:18:25.786Z,15.30
2019-01-19T10:20:56.032Z,15.60
2019-01-19T10:23:25.544Z,16.10
2019-01-19T10:25:55.638Z,15.30
2019-01-19T10:28:25.455Z,16.50
2019-01-19T10:30:54.861Z,15.93
2019-01-19T10:33:24.210Z,16.43
2019-01-19T10:35:53.575Z,16.87
2019-01-19T10:38:22.929Z,16.70
2019-01-19T10:40:52.419Z,18.73
2019-01-19T10:43:21.777Z,17.67
2019-01-19T10:45:51.105Z,17.93
2019-01-19T10:48:20.454Z,18.37
2019-01-19T10:50:49.967Z,18.97
2019-01-19T10:53:19.397Z,17.40
2019-01-19T10:55:49.074Z,17.40
2019-01-19T10:58:18.985Z,18.03
2019-01-19T11:00:48.322Z,19.45
2019-01-19T11:03:17.747Z,17.97
2019-01-19T11:05:47.597Z,18.87
2019-01-19T11:08:17.702Z,18.90
2019-01-19T11:10:47.893Z,18.27
2019-01-19T11:13:17.330Z,18.45
2019-01-19T11:15:46.680Z,20.60
2019-01-19T11:18:17.299Z,19.60
2019-01-19T11:20:46.795Z,20.00
2019-01-19T11:23:16.196Z,19.70
2019-01-19T11:25:45.804Z,21.00
2019-01-19T11:28:15.766Z,21.82
2019-01-19T11:30:45.170Z,22.52
2019-01-19T11:33:15.047Z,21.82
2019-01-19T11:35:44.476Z,21.90
2019-01-19T11:38:20.100Z,21.70
2019-01-19T11:40:45.057Z,20.83
2019-01-19T11:43:15.009Z,22.50
2019-01-19T11:45:44.415Z,22.55
2019-01-19T11:48:13.825Z,22.07
2019-01-19T11:50:43.258Z,24.12
2019-01-19T11:53:13.835Z,23.20
2019-01-19T11:55:43.246Z,22.45
2019-01-19T11:58:13.378Z,22.25
2019-01-19T12:00:43.031Z,24.77
2019-01-19T12:03:12.359Z,24.35
2019-01-19T12:05:44.679Z,23.57
2019-01-19T12:08:19.466Z,23.40
2019-01-19T12:10:45.203Z,23.98
2019-01-19T12:13:14.955Z,25.20
2019-01-19T12:15:44.856Z,23.80
2019-01-19T12:18:14.662Z,22.77
2019-01-19T12:20:44.895Z,23.40
2019-01-19T12:23:14.290Z,23.17
2019-01-19T12:25:43.799Z,20.97
2019-01-19T12:28:13.370Z,22.33
2019-01-19T12:30:43.279Z,21.12
2019-01-19T12:33:12.944Z,21.65
2019-01-19T12:35:42.443Z,21.23
2019-01-19T12:38:11.902Z,22.97
2019-01-19T12:40:41.710Z,22.90
2019-01-19T12:43:14.482Z,22.60
2019-01-19T12:45:49.389Z,21.90
2019-01-19T12:48:18.873Z,22.37
2019-01-19T12:50:48.246Z,23.70
2019-01-19T12:53:17.840Z,22.97
2019-01-19T12:55:47.249Z,23.23
2019-01-19T12:58:16.746Z,23.40
2019-01-19T13:00:46.502Z,21.57
2019-01-19T13:03:17.015Z,22.50
2019-01-19T13:05:52.623Z,21.60
2019-01-19T13:08:34.197Z,21.90
2019-01-19T13:11:07.213Z,22.90
2019-01-19T13:13:39.182Z,24.27
2019-01-19T13:16:20.623Z,23.90
2019-01-19T13:18:55.603Z,23.30
2019-01-19T13:22:01.208Z,23.40
2019-01-19T13:24:50.294Z,22.90
2019-01-19T13:27:42.546Z,22.77
2019-01-19T13:30:47.140Z,23.50
2019-01-19T13:33:22.521Z,24.57
2019-01-19T13:35:55.115Z,27.63
2019-01-19T13:38:30.524Z,26.65
2019-01-19T13:41:36.324Z,23.90
2019-01-19T13:44:23.839Z,24.40
2019-01-19T13:47:13.031Z,24.07
2019-01-19T13:50:01.863Z,24.57
2019-01-19T13:52:38.078Z,25.73
2019-01-19T13:55:29.880Z,22.93
2019-01-19T13:58:02.299Z,26.07
2019-01-19T14:00:37.601Z,24.90
2019-01-19T14:03:43.611Z,23.20
2019-01-19T14:06:33.828Z,24.70
2019-01-19T14:09:32.894Z,24.23
2019-01-19T14:12:23.541Z,26.23
2019-01-19T14:15:02.001Z,26.50
2019-01-19T14:17:50.539Z,24.03
2019-01-19T14:20:35.129Z,25.60
2019-01-19T14:23:28.412Z,26.80
2019-01-19T14:26:16.067Z,25.20
2019-01-19T14:29:00.352Z,26.07
2019-01-19T14:32:05.909Z,27.73
2019-01-19T14:34:54.832Z,25.20
2019-01-19T14:37:36.383Z,25.00
2019-01-19T14:40:14.628Z,25.10
2019-01-19T14:43:04.977Z,25.20
2019-01-19T14:45:37.415Z,25.20
2019-01-19T14:48:12.263Z,24.47
2019-01-19T14:51:02.862Z,24.47
2019-01-19T14:53:44.321Z,25.27
2019-01-19T14:56:34.146Z,25.83
2019-01-19T14:59:25.091Z,24.87
2019-01-19T15:02:26.155Z,23.70
2019-01-19T15:04:58.558Z,26.50
2019-01-19T15:07:48.764Z,24.43
2019-01-19T15:10:40.393Z,25.33
2019-01-19T15:13:27.595Z,25.30
2019-01-19T15:16:11.824Z,26.47
2019-01-19T15:18:50.294Z,24.73
2019-01-19T15:21:31.039Z,25.67
2019-01-19T15:24:06.468Z,25.77
2019-01-19T15:26:56.270Z,25.17
2019-01-19T15:29:28.706Z,26.27
2019-01-19T15:32:20.546Z,25.87
2019-01-19T15:35:09.696Z,24.05
2019-01-19T15:37:51.441Z,25.27
2019-01-19T15:40:29.700Z,23.77
2019-01-19T15:43:19.415Z,23.83
2019-01-19T15:45:57.670Z,23.40
2019-01-19T15:48:58.720Z,24.07
2019-01-19T15:51:33.750Z,22.40
2019-01-19T15:54:31.623Z,26.20
2019-01-19T15:57:16.263Z,25.00
2019-01-19T16:00:09.431Z,26.23
2019-01-19T16:02:56.943Z,26.65
2019-01-19T16:05:38.174Z,27.67
2019-01-19T16:08:32.116Z,26.70
2019-01-19T16:11:14.056Z,27.95
2019-01-19T16:14:12.230Z,28.40
2019-01-19T16:16:56.595Z,28.80
2019-01-19T16:19:41.105Z,31.03
2019-01-19T16:22:34.434Z,30.43
2019-01-19T16:25:42.847Z,31.45
2019-01-19T16:28:26.978Z,30.88
2019-01-19T16:31:11.676Z,43.97
2019-01-19T16:33:44.078Z,33.63
2019-01-19T16:36:19.701Z,27.00
2019-01-19T16:38:57.743Z,26.97
2019-01-19T16:41:32.890Z,30.00
2019-01-19T16:44:10.852Z,28.38
2019-01-19T16:46:59.469Z,29.77
2019-01-19T16:49:35.351Z,25.15
2019-01-19T16:52:30.471Z,24.93
2019-01-19T16:55:23.684Z,32.30
2019-01-19T16:58:08.305Z,26.75
2019-01-19T17:01:00.540Z,28.83
2019-01-19T17:03:57.597Z,30.97
2019-01-19T17:06:49.518Z,27.77
2019-01-19T17:09:42.606Z,34.97
2019-01-19T17:12:23.707Z,27.70
2019-01-19T17:15:05.352Z,29.48
2019-01-19T17:17:54.178Z,29.40
2019-01-19T17:20:35.939Z,33.67
2019-01-19T17:23:17.125Z,33.58
2019-01-19T17:26:03.395Z,27.93
2019-01-19T17:28:47.444Z,28.17
2019-01-19T17:31:22.942Z,27.93
2019-01-19T17:34:11.157Z,38.33
2019-01-19T17:36:50.056Z,26.50
2019-01-19T17:39:43.228Z,23.50
2019-01-19T17:42:35.124Z,22.95
2019-01-19T17:45:22.975Z,26.12
2019-01-19T17:48:03.975Z,24.80
2019-01-19T17:50:48.591Z,23.57
2019-01-19T17:53:29.919Z,22.50
2019-01-19T17:56:27.866Z,23.87
2019-01-19T17:59:01.128Z,24.30
2019-01-19T18:01:36.515Z,21.60
2019-01-19T18:04:26.581Z,22.07
2019-01-19T18:07:01.733Z,20.90
2019-01-19T18:10:08.742Z,18.92
2019-01-19T18:12:45.148Z,21.87
2019-01-19T18:15:17.749Z,21.42
2019-01-19T18:18:04.680Z,21.20
2019-01-19T18:20:50.299Z,23.87
2019-01-19T18:23:50.131Z,22.82
2019-01-19T18:26:28.107Z,19.73
2019-01-19T18:29:15.908Z,21.17
2019-01-19T18:32:15.498Z,29.10
2019-01-19T18:35:11.923Z,20.80
2019-01-19T18:38:03.899Z,25.57
2019-01-19T18:41:04.751Z,21.33
2019-01-19T18:43:49.024Z,21.43
2019-01-19T18:46:24.336Z,20.13
2019-01-19T18:49:29.876Z,22.33
2019-01-19T18:52:17.020Z,25.40
2019-01-19T18:55:01.225Z,26.30
2019-01-19T18:57:59.390Z,29.27
2019-01-19T19:00:34.933Z,22.47
2019-01-19T19:03:19.474Z,23.67
2019-01-19T19:05:54.806Z,22.50
2019-01-19T19:08:35.607Z,23.13
2019-01-19T19:11:12.559Z,24.17
2019-01-19T19:13:54.209Z,25.07
2019-01-19T19:16:47.749Z,22.73
2019-01-19T19:19:31.619Z,23.77
2019-01-19T19:22:04.340Z,25.97
2019-01-19T19:24:39.500Z,29.82
2019-01-19T19:27:33.705Z,26.33
2019-01-19T19:30:24.244Z,30.13
2019-01-19T19:33:16.514Z,28.70
2019-01-19T19:36:00.928Z,24.90
2019-01-19T19:38:58.207Z,25.20
2019-01-19T19:41:42.631Z,23.00
2019-01-19T19:44:48.719Z,22.48
2019-01-19T19:47:38.008Z,27.67
2019-01-19T19:50:28.471Z,29.98
2019-01-19T19:52:57.883Z,26.23
2019-01-19T19:55:26.244Z,23.10
2019-01-19T19:57:55.612Z,22.10
2019-01-19T20:00:25.320Z,23.30
2019-01-19T20:02:54.766Z,23.87
2019-01-19T20:05:24.298Z,24.47
2019-01-19T20:07:53.709Z,21.30
2019-01-19T20:10:23.797Z,23.55
2019-01-19T20:12:53.566Z,21.13
2019-01-19T20:15:24.200Z,20.80
2019-01-19T20:17:54.261Z,20.88
2019-01-19T20:20:23.786Z,22.93
2019-01-19T20:22:53.203Z,29.35
2019-01-19T20:25:23.319Z,26.67
2019-01-19T20:27:52.759Z,22.47
2019-01-19T20:30:22.316Z,24.05
2019-01-19T20:32:51.963Z,25.47
2019-01-19T20:35:22.400Z,25.65
2019-01-19T20:37:51.911Z,25.08
2019-01-19T20:40:24.490Z,25.48
2019-01-19T20:42:53.474Z,24.47
2019-01-19T20:45:22.895Z,76.60
2019-01-19T20:47:52.404Z,25.02
2019-01-19T20:50:23.297Z,26.50
2019-01-19T20:52:53.148Z,26.25
2019-01-19T20:55:22.657Z,24.70
2019-01-19T20:57:52.113Z,25.23
2019-01-19T21:00:21.666Z,22.77
2019-01-19T21:02:51.094Z,26.30
2019-01-19T21:05:20.531Z,25.27
2019-01-19T21:07:49.959Z,24.83
2019-01-19T21:10:19.398Z,26.55
2019-01-19T21:12:48.991Z,25.07
2019-01-19T21:15:19.261Z,25.17
2019-01-19T21:17:55.605Z,23.50
2019-01-19T21:20:19.826Z,24.23
2019-01-19T21:22:49.401Z,23.55
2019-01-19T21:25:18.812Z,23.62
2019-01-19T21:27:48.825Z,24.10
2019-01-19T21:30:18.469Z,24.40
2019-01-19T21:32:48.000Z,23.87
2019-01-19T21:35:17.601Z,23.75
2019-01-19T21:37:47.158Z,23.45
2019-01-19T21:40:17.752Z,24.37
2019-01-19T21:42:47.273Z,22.65
2019-01-19T21:45:19.472Z,21.95
2019-01-19T21:47:48.928Z,22.70
2019-01-19T21:50:18.287Z,24.70
2019-01-19T21:52:47.725Z,24.40
2019-01-19T21:55:17.237Z,24.65
2019-01-19T21:57:46.596Z,25.25
2019-01-19T22:00:21.989Z,24.80
2019-01-19T22:02:51.580Z,25.93
2019-01-19T22:05:21.397Z,26.93
2019-01-19T22:07:50.988Z,25.57
2019-01-19T22:10:23.206Z,25.05
2019-01-19T22:12:52.768Z,25.10
2019-01-19T22:15:22.271Z,25.08
2019-01-19T22:17:51.784Z,26.73
2019-01-19T22:20:21.271Z,27.75
2019-01-19T22:22:51.338Z,28.57
2019-01-19T22:25:20.796Z,25.82
2019-01-19T22:27:50.449Z,28.50
2019-01-19T22:30:24.612Z,27.70
2019-01-19T22:32:55.875Z,27.65
2019-01-19T22:35:27.635Z,29.00
2019-01-19T22:37:57.550Z,26.40
2019-01-19T22:40:27.445Z,24.87
2019-01-19T22:42:57.562Z,27.05
2019-01-19T22:45:26.976Z,30.32
2019-01-19T22:47:56.493Z,30.02
2019-01-19T22:50:26.074Z,30.45
2019-01-19T22:52:55.726Z,30.95
2019-01-19T22:55:25.688Z,29.67
2019-01-19T22:57:55.447Z,30.23
2019-01-19T23:00:54.976Z,30.90
2019-01-19T23:03:24.501Z,29.57
2019-01-19T23:05:54.454Z,31.17
2019-01-19T23:08:24.116Z,30.37
2019-01-19T23:11:00.958Z,34.85
2019-01-19T23:13:25.532Z,33.40
2019-01-19T23:15:54.991Z,34.53
2019-01-19T23:18:24.499Z,34.27
2019-01-19T23:20:54.545Z,34.85
2019-01-19T23:23:24.464Z,33.48
2019-01-19T23:25:53.971Z,34.18
2019-01-19T23:28:25.434Z,33.28
2019-01-19T23:30:54.925Z,33.83
2019-01-19T23:33:24.649Z,34.78
2019-01-19T23:35:54.240Z,35.15
2019-01-19T23:38:23.761Z,34.23
2019-01-19T23:40:54.548Z,34.35
2019-01-19T23:43:24.065Z,36.70
2019-01-19T23:45:53.502Z,33.92
2019-01-19T23:48:22.953Z,35.08
2019-01-19T23:50:52.509Z,36.87
2019-01-19T23:53:21.966Z,35.17
2019-01-19T23:55:51.443Z,35.33
2019-01-19T23:58:21.049Z,36.00
